createdAt,value
2022-09-26T00:01:11.087Z,100289.38
2022-09-26T00:03:38.405Z,100289.63
2022-09-26T00:06:07.579Z,100283.44
2022-09-26T00:08:35.924Z,100290.38
2022-09-26T00:11:05.026Z,100283.69
2022-09-26T00:13:34.302Z,100282.59
2022-09-26T00:16:01.583Z,100285.84
2022-09-26T00:18:28.139Z,100274.56
2022-09-26T00:21:05.940Z,100278.31
2022-09-26T00:23:32.601Z,100276.44
2022-09-26T00:25:59.691Z,100281.03
2022-09-26T00:28:27.478Z,100278.59
2022-09-26T00:30:54.644Z,100270.28
2022-09-26T00:33:21.319Z,100268.13
2022-09-26T00:35:52.111Z,100278.31
2022-09-26T00:38:19.552Z,100268.09
2022-09-26T00:40:47.119Z,100270.78
2022-09-26T00:43:28.656Z,100270.75
2022-09-26T00:46:05.101Z,100268.56
2022-09-26T00:48:34.415Z,100272.38
2022-09-26T00:51:01.594Z,100268.56
2022-09-26T00:53:35.772Z,100266.97
2022-09-26T00:56:07.568Z,100261.88
2022-09-26T00:58:41.522Z,100261.59
2022-09-26T01:01:09.361Z,100264.28
2022-09-26T01:03:38.997Z,100256.47
2022-09-26T01:06:05.843Z,100248.13
2022-09-26T01:08:38.537Z,100250.25
2022-09-26T01:11:06.070Z,100254.31
2022-09-26T01:13:36.597Z,100253.50
2022-09-26T01:16:03.543Z,100246.53
2022-09-26T01:18:30.717Z,100244.91
2022-09-26T01:21:42.943Z,100240.31
2022-09-26T01:24:13.360Z,100240.63
2022-09-26T01:26:50.345Z,100243.59
2022-09-26T01:29:44.432Z,100237.97
2022-09-26T01:32:48.365Z,100236.09
2022-09-26T01:35:42.648Z,100238.56
2022-09-26T01:38:35.708Z,100235.63
2022-09-26T01:41:14.373Z,100226.78
2022-09-26T01:43:41.568Z,100222.00
2022-09-26T01:46:21.901Z,100231.16
2022-09-26T01:48:55.453Z,100233.84
2022-09-26T01:51:39.789Z,100233.81
2022-09-26T01:54:12.585Z,100227.38
2022-09-26T01:56:42.827Z,100231.13
2022-09-26T01:59:28.110Z,100227.91
2022-09-26T02:02:03.207Z,100225.78
2022-09-26T02:04:38.839Z,100226.88
2022-09-26T02:07:34.110Z,100218.28
2022-09-26T02:10:07.713Z,100218.81
2022-09-26T02:12:39.528Z,100220.97
2022-09-26T02:15:09.354Z,100221.50
2022-09-26T02:17:38.232Z,100218.28
2022-09-26T02:20:38.068Z,100208.88
2022-09-26T02:23:05.330Z,100212.63
2022-09-26T02:25:33.096Z,100205.41
2022-09-26T02:28:00.138Z,100198.44
2022-09-26T02:30:27.083Z,100201.66
2022-09-26T02:32:53.794Z,100192.78
2022-09-26T02:35:42.167Z,100188.19
2022-09-26T02:38:09.929Z,100182.28
2022-09-26T02:41:13.927Z,100179.63
2022-09-26T02:44:02.536Z,100186.06
2022-09-26T02:47:06.403Z,100176.41
2022-09-26T02:49:47.761Z,100176.97
2022-09-26T02:52:39.068Z,100174.84
2022-09-26T02:55:26.514Z,100165.72
2022-09-26T02:58:13.161Z,100154.97
2022-09-26T03:01:07.634Z,100149.63
2022-09-26T03:03:40.488Z,100148.53
2022-09-26T03:06:10.889Z,100145.81
2022-09-26T03:08:44.377Z,100142.63
2022-09-26T03:11:15.927Z,100133.78
2022-09-26T03:13:44.956Z,100137.78
2022-09-26T03:16:14.217Z,100131.88
2022-09-26T03:18:54.091Z,100134.56
2022-09-26T03:21:22.940Z,100131.88
2022-09-26T03:23:50.332Z,100125.97
2022-09-26T03:26:24.554Z,100125.41
2022-09-26T03:28:58.495Z,100129.19
2022-09-26T03:31:28.245Z,100125.69
2022-09-26T03:34:00.526Z,100123.50
2022-09-26T03:36:28.317Z,100129.34
2022-09-26T03:38:54.937Z,100119.47
2022-09-26T03:41:50.898Z,100116.25
2022-09-26T03:44:25.157Z,100108.81
2022-09-26T03:47:04.576Z,100096.22
2022-09-26T03:49:34.956Z,100090.06
2022-09-26T03:52:02.332Z,100097.84
2022-09-26T03:54:29.523Z,100108.84
2022-09-26T03:56:57.175Z,100093.31
2022-09-26T03:59:23.863Z,100094.91
2022-09-26T04:01:51.381Z,100089.53
2022-09-26T04:04:18.070Z,100091.16
2022-09-26T04:06:45.084Z,100082.56
2022-09-26T04:09:17.075Z,100079.88
2022-09-26T04:11:47.704Z,100074.25
2022-09-26T04:14:14.245Z,100074.53
2022-09-26T04:16:42.145Z,100071.31
2022-09-26T04:19:16.380Z,100075.56
2022-09-26T04:21:43.120Z,100072.66
2022-09-26T04:24:15.242Z,100073.69
2022-09-26T04:26:43.982Z,100070.22
2022-09-26T04:29:10.997Z,100061.13
2022-09-26T04:32:06.863Z,100057.34
2022-09-26T04:34:52.080Z,100055.75
2022-09-26T04:37:20.944Z,100045.56
2022-09-26T04:39:48.085Z,100045.00
2022-09-26T04:42:14.965Z,100047.16
2022-09-26T04:44:41.675Z,100029.44
2022-09-26T04:47:08.271Z,100031.56
2022-09-26T04:49:55.149Z,100028.34
2022-09-26T04:52:22.018Z,100028.59
2022-09-26T04:54:48.640Z,100031.81
2022-09-26T04:57:19.582Z,100026.72
2022-09-26T04:59:46.569Z,100024.84
2022-09-26T05:02:13.679Z,100020.25
2022-09-26T05:04:42.076Z,100020.25
2022-09-26T05:07:08.632Z,100022.66
2022-09-26T05:09:36.304Z,100022.41
2022-09-26T05:12:10.297Z,100024.31
2022-09-26T05:14:38.340Z,100018.13
2022-09-26T05:17:05.123Z,100017.59
2022-09-26T05:19:32.805Z,100015.19
2022-09-26T05:22:17.939Z,100011.97
2022-09-26T05:25:03.249Z,100013.31
2022-09-26T05:27:30.618Z,100008.81
2022-09-26T05:29:57.258Z,100005.88
2022-09-26T05:32:25.492Z,99992.47
2022-09-26T05:34:52.087Z,100000.50
2022-09-26T05:37:21.169Z,99993.81
2022-09-26T05:40:07.215Z,99993.00
2022-09-26T05:42:38.409Z,99996.75
2022-09-26T05:45:05.942Z,99986.00
2022-09-26T05:47:36.381Z,99985.97
2022-09-26T05:50:09.933Z,99986.78
2022-09-26T05:52:38.317Z,99988.91
2022-09-26T05:55:05.735Z,99990.53
2022-09-26T05:57:58.848Z,99983.31
2022-09-26T06:00:35.561Z,99988.19
2022-09-26T06:03:05.016Z,99973.72
2022-09-26T06:05:42.013Z,99976.16
2022-09-26T06:08:12.641Z,99976.41
2022-09-26T06:10:44.419Z,99968.34
2022-09-26T06:13:15.225Z,99969.97
2022-09-26T06:15:49.890Z,99969.41
2022-09-26T06:18:16.722Z,99968.00
2022-09-26T06:20:43.185Z,99966.03
2022-09-26T06:23:11.075Z,99960.63
2022-09-26T06:25:38.984Z,99958.47
2022-09-26T06:28:06.256Z,99954.06
2022-09-26T06:30:33.166Z,99956.63
2022-09-26T06:33:17.687Z,99955.75
2022-09-26T06:36:08.035Z,99952.09
2022-09-26T06:38:37.418Z,99947.41
2022-09-26T06:41:19.946Z,99946.63
2022-09-26T06:43:47.381Z,99946.19
2022-09-26T06:46:32.865Z,99946.59
2022-09-26T06:49:22.354Z,99941.47
2022-09-26T06:52:02.490Z,99943.88
2022-09-26T06:54:29.113Z,99948.88
2022-09-26T06:56:56.101Z,99930.47
2022-09-26T06:59:23.214Z,99939.00
2022-09-26T07:02:10.461Z,99933.19
2022-09-26T07:04:54.584Z,99930.50
2022-09-26T07:07:41.876Z,99921.31
2022-09-26T07:10:14.633Z,99920.78
2022-09-26T07:12:49.541Z,99932.56
2022-09-26T07:15:18.588Z,99921.31
2022-09-26T07:17:47.136Z,99922.50
2022-09-26T07:20:40.148Z,99925.19
2022-09-26T07:23:29.792Z,99931.69
2022-09-26T07:25:56.644Z,99937.16
2022-09-26T07:28:24.158Z,99933.38
2022-09-26T07:30:57.148Z,99925.53
2022-09-26T07:33:40.167Z,99919.84
2022-09-26T07:36:09.681Z,99923.06
2022-09-26T07:38:37.283Z,99925.22
2022-09-26T07:41:04.967Z,99921.28
2022-09-26T07:44:16.923Z,99914.66
2022-09-26T07:46:39.200Z,99914.28
2022-09-26T07:49:24.519Z,99916.38
2022-09-26T07:52:15.184Z,99912.63
2022-09-26T07:55:01.639Z,99908.13
2022-09-26T07:57:42.991Z,99907.00
2022-09-26T08:00:24.036Z,99902.91
2022-09-26T08:03:01.659Z,99911.69
2022-09-26T08:05:29.872Z,99907.03
2022-09-26T08:07:57.311Z,99905.06
2022-09-26T08:11:04.281Z,99895.28
2022-09-26T08:13:51.306Z,99905.69
2022-09-26T08:16:47.095Z,99893.81
2022-09-26T08:19:17.278Z,99882.47
2022-09-26T08:21:44.582Z,99884.31
2022-09-26T08:24:11.284Z,99880.75
2022-09-26T08:26:44.077Z,99893.28
2022-09-26T08:29:34.096Z,99888.78
2022-09-26T08:32:03.605Z,99886.53
2022-09-26T08:34:35.119Z,99883.81
2022-09-26T08:37:28.632Z,99885.50
2022-09-26T08:40:18.478Z,99886.16
2022-09-26T08:43:20.203Z,99877.94
2022-09-26T08:46:55.626Z,99873.19
2022-09-26T08:49:42.427Z,99875.81
2022-09-26T08:52:29.581Z,99875.25
2022-09-26T08:55:01.343Z,99881.06
2022-09-26T08:57:37.362Z,99874.22
2022-09-26T09:00:26.037Z,99872.72
2022-09-26T09:03:17.609Z,99865.16
2022-09-26T09:05:50.209Z,99868.19
2022-09-26T09:08:22.792Z,99865.44
2022-09-26T09:11:32.053Z,99859.91
2022-09-26T09:14:17.498Z,99857.06
2022-09-26T09:17:32.277Z,99847.97
2022-09-26T09:20:38.531Z,99854.31
2022-09-26T09:24:03.184Z,99847.28
2022-09-26T09:29:56.615Z,99832.03
2022-09-26T09:33:02.943Z,99824.94
2022-09-26T09:35:52.072Z,99818.41
2022-09-26T09:38:34.613Z,99810.91
2022-09-26T09:41:30.112Z,99804.34
2022-09-26T09:44:00.561Z,99791.66
2022-09-26T09:46:32.183Z,99796.56
2022-09-26T09:49:07.957Z,99798.66
2022-09-26T09:52:12.207Z,99787.63
2022-09-26T09:55:00.633Z,99781.47
2022-09-26T09:57:45.361Z,99780.47
2022-09-26T10:00:12.903Z,99777.91
2022-09-26T10:02:50.439Z,99776.66
2022-09-26T10:05:39.357Z,99770.84
2022-09-26T10:08:11.173Z,99762.88
2022-09-26T10:11:19.391Z,99768.22
2022-09-26T10:14:07.635Z,99762.88
2022-09-26T10:17:09.023Z,99759.47
2022-09-26T10:19:43.356Z,99757.19
2022-09-26T10:22:32.524Z,99759.53
2022-09-26T10:25:03.815Z,99753.31
2022-09-26T10:27:40.996Z,99751.06
2022-09-26T10:30:18.626Z,99748.38
2022-09-26T10:32:54.030Z,99756.56
2022-09-26T10:35:44.896Z,99743.91
2022-09-26T10:38:24.747Z,99735.34
2022-09-26T10:41:03.548Z,99738.97
2022-09-26T10:43:37.896Z,99734.13
2022-09-26T10:46:23.550Z,99729.41
2022-09-26T10:49:14.853Z,99722.31
2022-09-26T10:52:16.012Z,99718.47
2022-09-26T10:55:06.773Z,99715.69
2022-09-26T10:57:40.740Z,99700.72
2022-09-26T11:00:08.128Z,99706.91
2022-09-26T11:02:36.272Z,99699.94
2022-09-26T11:05:24.605Z,99696.38
2022-09-26T11:08:15.023Z,99685.34
2022-09-26T11:11:07.910Z,99688.94
2022-09-26T11:14:04.997Z,99686.50
2022-09-26T11:16:44.151Z,99684.69
2022-09-26T11:19:22.307Z,99675.53
2022-09-26T11:22:08.528Z,99665.31
2022-09-26T11:24:51.479Z,99642.53
2022-09-26T11:27:48.518Z,99632.00
2022-09-26T11:30:23.054Z,99627.03
2022-09-26T11:33:00.326Z,99628.41
2022-09-26T11:36:18.064Z,99638.97
2022-09-26T11:38:48.553Z,99626.16
2022-09-26T11:41:36.505Z,99615.06
2022-09-26T11:44:43.276Z,99606.78
2022-09-26T11:47:54.156Z,99597.28
2022-09-26T11:50:41.797Z,99586.84
2022-09-26T11:53:42.569Z,99587.91
2022-09-26T11:56:40.118Z,99587.31
2022-09-26T11:59:25.431Z,99577.16
2022-09-26T12:02:08.150Z,99569.91
2022-09-26T12:05:14.068Z,99561.38
2022-09-26T12:07:52.794Z,99566.16
2022-09-26T12:10:26.247Z,99556.72
2022-09-26T12:13:08.237Z,99550.84
2022-09-26T12:16:19.736Z,99551.00
2022-09-26T12:19:10.487Z,99552.06
2022-09-26T12:22:07.375Z,99549.94
2022-09-26T12:25:09.731Z,99541.41
2022-09-26T12:27:45.531Z,99535.09
2022-09-26T12:30:15.675Z,99541.34
2022-09-26T12:33:00.083Z,99526.25
2022-09-26T12:36:09.728Z,99530.38
2022-09-26T12:39:12.320Z,99530.56
2022-09-26T12:42:03.525Z,99525.53
2022-09-26T12:44:45.231Z,99531.00
2022-09-26T12:47:33.517Z,99532.00
2022-09-26T12:50:14.638Z,99548.00
2022-09-26T12:53:10.487Z,99549.78
2022-09-26T12:55:46.718Z,99550.03
2022-09-26T12:58:25.383Z,99549.69
2022-09-26T13:01:17.169Z,99542.88
2022-09-26T13:03:49.893Z,99540.50
2022-09-26T13:06:49.075Z,99525.75
2022-09-26T13:10:02.956Z,99536.66
2022-09-26T13:12:54.306Z,99534.44
2022-09-26T13:15:35.368Z,99530.59
2022-09-26T13:18:12.698Z,99532.88
2022-09-26T13:20:40.770Z,99538.75
2022-09-26T13:23:25.297Z,99526.31
2022-09-26T13:26:14.484Z,99525.97
2022-09-26T13:29:15.726Z,99511.81
2022-09-26T13:31:55.828Z,99502.72
2022-09-26T13:34:28.500Z,99499.34
2022-09-26T13:37:05.264Z,99488.47
2022-09-26T13:39:46.442Z,99489.84
2022-09-26T13:42:22.347Z,99494.81
2022-09-26T13:45:07.318Z,99498.19
2022-09-26T13:47:45.627Z,99491.34
2022-09-26T13:50:32.994Z,99487.00
2022-09-26T13:53:28.929Z,99483.69
2022-09-26T13:56:33.952Z,99483.19
2022-09-26T13:59:12.966Z,99497.34
2022-09-26T14:02:34.653Z,99480.75
2022-09-26T14:05:01.131Z,99472.34
2022-09-26T14:07:58.440Z,99464.94
2022-09-26T14:10:24.901Z,99459.00
2022-09-26T14:13:10.934Z,99463.75
2022-09-26T14:15:46.773Z,99461.91
2022-09-26T14:18:30.262Z,99450.31
2022-09-26T14:21:07.013Z,99446.63
2022-09-26T14:23:36.751Z,99439.75
2022-09-26T14:26:08.388Z,99437.84
2022-09-26T14:28:37.328Z,99440.78
2022-09-26T14:31:17.232Z,99440.88
2022-09-26T14:33:45.607Z,99432.66
2022-09-26T14:36:32.363Z,99437.69
2022-09-26T14:38:59.446Z,99424.22
2022-09-26T14:41:33.302Z,99418.41
2022-09-26T14:44:15.915Z,99420.50
2022-09-26T14:46:43.053Z,99410.16
2022-09-26T14:49:20.973Z,99405.66
2022-09-26T14:51:51.664Z,99405.06
2022-09-26T14:54:24.302Z,99402.19
2022-09-26T14:57:05.257Z,99403.84
2022-09-26T14:59:34.836Z,99396.50
2022-09-26T15:02:14.346Z,99391.28
2022-09-26T15:04:42.445Z,99379.88
2022-09-26T15:07:17.690Z,99377.56
2022-09-26T15:09:59.837Z,99369.75
2022-09-26T15:12:39.867Z,99364.28
2022-09-26T15:15:17.276Z,99364.19
2022-09-26T15:17:56.480Z,99364.88
2022-09-26T15:20:25.355Z,99362.88
2022-09-26T15:22:56.962Z,99363.41
2022-09-26T15:25:31.488Z,99352.66
2022-09-26T15:27:59.871Z,99349.41
2022-09-26T15:30:37.272Z,99347.94
2022-09-26T15:33:04.436Z,99342.38
2022-09-26T15:35:32.477Z,99339.72
2022-09-26T15:38:01.220Z,99327.03
2022-09-26T15:40:30.713Z,99328.75
2022-09-26T15:43:11.451Z,99329.88
2022-09-26T15:45:46.996Z,99330.88
2022-09-26T15:48:19.615Z,99334.44
2022-09-26T15:50:50.420Z,99333.72
2022-09-26T15:53:37.688Z,99321.03
2022-09-26T15:56:16.754Z,99320.41
2022-09-26T15:58:48.364Z,99324.16
2022-09-26T16:01:17.488Z,99320.81
2022-09-26T16:04:00.400Z,99313.91
2022-09-26T16:06:34.299Z,99321.00
2022-09-26T16:09:11.444Z,99309.22
2022-09-26T16:11:51.272Z,99326.13
2022-09-26T16:14:41.439Z,99321.84
2022-09-26T16:17:38.645Z,99316.94
2022-09-26T16:20:11.568Z,99309.63
2022-09-26T16:22:51.132Z,99307.28
2022-09-26T16:25:20.782Z,99313.69
2022-09-26T16:27:50.052Z,99300.19
2022-09-26T16:30:25.694Z,99310.97
2022-09-26T16:32:55.089Z,99307.34
2022-09-26T16:35:29.511Z,99293.06
2022-09-26T16:38:01.727Z,99298.16
2022-09-26T16:40:34.365Z,99294.66
2022-09-26T16:43:13.994Z,99297.19
2022-09-26T16:45:54.463Z,99290.91
2022-09-26T16:48:39.612Z,99291.38
2022-09-26T16:51:18.410Z,99281.19
2022-09-26T16:53:53.344Z,99272.47
2022-09-26T16:56:23.253Z,99274.03
2022-09-26T16:59:03.207Z,99270.53
2022-09-26T17:01:48.617Z,99265.81
2022-09-26T17:04:22.157Z,99261.97
2022-09-26T17:06:48.816Z,99260.06
2022-09-26T17:09:18.487Z,99262.28
2022-09-26T17:11:47.861Z,99246.25
2022-09-26T17:14:18.430Z,99242.91
2022-09-26T17:16:47.025Z,99230.19
2022-09-26T17:19:16.510Z,99237.66
2022-09-26T17:21:44.069Z,99235.78
2022-09-26T17:24:28.673Z,99230.38
2022-09-26T17:27:01.632Z,99227.19
2022-09-26T17:29:34.264Z,99222.41
2022-09-26T17:32:08.907Z,99213.69
2022-09-26T17:34:36.773Z,99223.41
2022-09-26T17:37:03.931Z,99217.00
2022-09-26T17:39:30.879Z,99206.06
2022-09-26T17:41:59.186Z,99222.44
2022-09-26T17:44:26.303Z,99211.66
2022-09-26T17:46:55.708Z,99206.72
2022-09-26T17:49:25.227Z,99210.81
2022-09-26T17:51:55.862Z,99200.03
2022-09-26T17:54:40.771Z,99204.00
2022-09-26T17:57:14.140Z,99206.53
2022-09-26T17:59:42.186Z,99194.00
2022-09-26T18:02:31.748Z,99196.88
2022-09-26T18:05:06.027Z,99189.25
2022-09-26T18:07:44.691Z,99192.13
2022-09-26T18:10:21.501Z,99185.59
2022-09-26T18:12:56.098Z,99198.00
2022-09-26T18:15:23.598Z,99189.25
2022-09-26T18:17:53.174Z,99188.13
2022-09-26T18:20:23.057Z,99188.31
2022-09-26T18:22:52.615Z,99174.16
2022-09-26T18:25:25.294Z,99180.81
2022-09-26T18:27:55.045Z,99179.41
2022-09-26T18:30:23.738Z,99181.13
2022-09-26T18:32:55.003Z,99180.00
2022-09-26T18:35:27.171Z,99176.78
2022-09-26T18:37:55.817Z,99183.00
2022-09-26T18:40:28.719Z,99188.06
2022-09-26T18:42:58.088Z,99195.06
2022-09-26T18:45:35.880Z,99199.91
2022-09-26T18:48:19.273Z,99192.91
2022-09-26T18:50:46.018Z,99191.84
2022-09-26T18:53:14.355Z,99190.09
2022-09-26T18:55:59.824Z,99193.78
2022-09-26T18:58:27.835Z,99194.72
2022-09-26T19:01:07.446Z,99190.63
2022-09-26T19:03:37.302Z,99183.78
2022-09-26T19:06:08.614Z,99192.78
2022-09-26T19:08:45.025Z,99191.16
2022-09-26T19:11:17.801Z,99196.25
2022-09-26T19:13:47.298Z,99185.97
2022-09-26T19:16:13.989Z,99193.06
2022-09-26T19:18:41.137Z,99192.91
2022-09-26T19:21:18.549Z,99202.63
2022-09-26T19:23:46.822Z,99212.28
2022-09-26T19:26:37.847Z,99201.16
2022-09-26T19:29:11.982Z,99203.34
2022-09-26T19:31:39.892Z,99193.00
2022-09-26T19:34:06.665Z,99195.34
2022-09-26T19:36:33.458Z,99200.41
2022-09-26T19:39:00.557Z,99191.63
2022-09-26T19:41:27.501Z,99195.59
2022-09-26T19:43:54.398Z,99190.38
2022-09-26T19:46:27.440Z,99193.91
2022-09-26T19:48:54.282Z,99192.31
2022-09-26T19:51:21.249Z,99185.03
2022-09-26T19:53:48.116Z,99178.97
2022-09-26T19:56:14.794Z,99172.16
2022-09-26T19:58:41.540Z,99177.41
2022-09-26T20:01:16.516Z,99169.09
2022-09-26T20:03:44.882Z,99171.56
2022-09-26T20:06:24.523Z,99155.69
2022-09-26T20:08:56.401Z,99151.75
2022-09-26T20:11:27.079Z,99150.94
2022-09-26T20:14:12.373Z,99148.97
2022-09-26T20:16:42.169Z,99151.28
2022-09-26T20:19:14.737Z,99148.84
2022-09-26T20:21:41.564Z,99136.56
2022-09-26T20:24:16.445Z,99144.44
2022-09-26T20:26:43.415Z,99133.53
2022-09-26T20:29:15.036Z,99129.50
2022-09-26T20:31:44.460Z,99133.69
2022-09-26T20:34:11.551Z,99126.31
2022-09-26T20:36:43.449Z,99120.09
2022-09-26T20:39:24.245Z,99103.72
2022-09-26T20:41:51.768Z,99110.69
2022-09-26T20:44:24.480Z,99110.06
2022-09-26T20:46:56.196Z,99104.69
2022-09-26T20:49:33.384Z,99102.69
2022-09-26T20:52:00.967Z,99095.16
2022-09-26T20:54:32.578Z,99095.16
2022-09-26T20:57:01.230Z,99081.59
2022-09-26T20:59:28.640Z,99083.56
2022-09-26T21:01:57.276Z,99078.22
2022-09-26T21:04:31.172Z,99073.88
2022-09-26T21:06:58.131Z,99077.63
2022-09-26T21:09:24.765Z,99080.47
2022-09-26T21:11:51.427Z,99062.16
2022-09-26T21:14:19.027Z,99064.34
2022-09-26T21:16:51.405Z,99053.78
2022-09-26T21:19:24.135Z,99049.81
2022-09-26T21:22:02.415Z,99047.69
2022-09-26T21:24:42.264Z,99052.88
2022-09-26T21:27:13.098Z,99052.47
2022-09-26T21:29:41.197Z,99049.81
2022-09-26T21:32:14.271Z,99043.09
2022-09-26T21:34:41.391Z,99049.50
2022-09-26T21:37:10.040Z,99052.13
2022-09-26T21:39:38.934Z,99043.81
2022-09-26T21:42:07.061Z,99043.81
2022-09-26T21:44:46.045Z,99027.31
2022-09-26T21:47:12.727Z,99036.69
2022-09-26T21:49:39.467Z,99027.16
2022-09-26T21:52:33.853Z,99027.66
2022-09-26T21:55:01.570Z,99018.75
2022-09-26T21:57:32.928Z,99025.50
2022-09-26T22:00:00.339Z,99010.34
2022-09-26T22:02:27.886Z,99012.78
2022-09-26T22:04:54.562Z,99010.19
2022-09-26T22:07:21.320Z,99009.22
2022-09-26T22:09:47.921Z,99002.56
2022-09-26T22:12:24.562Z,99007.16
2022-09-26T22:14:51.517Z,98993.91
2022-09-26T22:17:18.653Z,98989.34
2022-09-26T22:19:45.466Z,98992.88
2022-09-26T22:22:12.107Z,98988.00
2022-09-26T22:24:38.831Z,98982.13
2022-09-26T22:27:05.727Z,98981.63
2022-09-26T22:29:32.749Z,98986.00
2022-09-26T22:31:59.456Z,98979.66
2022-09-26T22:34:26.726Z,98973.00
2022-09-26T22:36:53.440Z,98980.31
2022-09-26T22:39:22.428Z,98975.75
2022-09-26T22:41:49.079Z,98970.00
2022-09-26T22:44:15.769Z,98978.38
2022-09-26T22:46:42.546Z,98962.03
2022-09-26T22:49:09.205Z,98963.13
2022-09-26T22:51:35.846Z,98954.22
2022-09-26T22:54:02.644Z,98950.81
2022-09-26T22:56:29.344Z,98952.63
2022-09-26T22:58:56.139Z,98941.84
2022-09-26T23:01:27.873Z,98946.59
2022-09-26T23:03:56.629Z,98939.25
2022-09-26T23:06:24.140Z,98932.66
2022-09-26T23:08:51.044Z,98933.53
2022-09-26T23:11:18.412Z,98930.13
2022-09-26T23:13:45.919Z,98930.34
2022-09-26T23:16:17.788Z,98919.09
2022-09-26T23:18:44.696Z,98925.47
2022-09-26T23:21:12.713Z,98917.19
2022-09-26T23:23:41.515Z,98914.25
2022-09-26T23:26:13.917Z,98911.63
2022-09-26T23:28:40.894Z,98911.81
2022-09-26T23:31:11.249Z,98908.19
2022-09-26T23:33:38.423Z,98900.09
2022-09-26T23:36:06.445Z,98898.06
2022-09-26T23:38:33.832Z,98896.03
2022-09-26T23:41:00.472Z,98892.88
2022-09-26T23:43:27.288Z,98894.97
2022-09-26T23:45:54.037Z,98888.47
2022-09-26T23:48:20.706Z,98887.75
2022-09-26T23:50:47.575Z,98888.91
2022-09-26T23:53:15.249Z,98885.13
2022-09-26T23:55:42.604Z,98875.00
2022-09-26T23:58:10.778Z,98869.91
